createdAt,value
2023-05-04T00:00:47.996Z,7.9
2023-05-04T00:05:47.999Z,7.9
2023-05-04T00:15:48.033Z,7.9
2023-05-04T00:20:47.998Z,7.8
2023-05-04T00:30:48.015Z,7.9
2023-05-04T00:40:47.993Z,8
2023-05-04T00:50:48.007Z,8
2023-05-04T00:55:47.997Z,8
2023-05-04T01:05:47.993Z,7.9
2023-05-04T01:15:48.003Z,8
2023-05-04T01:20:48.010Z,8.1
2023-05-04T01:30:48.061Z,8.1
2023-05-04T01:40:47.999Z,8.1
2023-05-04T01:50:48.013Z,8.1
2023-05-04T02:00:47.991Z,8
2023-05-04T02:10:48.009Z,8.1
2023-05-04T02:20:48.065Z,8.1
2023-05-04T02:40:48.003Z,8
2023-05-04T02:45:48.028Z,8.2
2023-05-04T02:55:48.024Z,8
2023-05-04T03:05:48.020Z,8
2023-05-04T03:15:48.013Z,8.1
2023-05-04T03:25:48.010Z,8.1
2023-05-04T03:35:47.998Z,8.1
2023-05-04T03:40:48.020Z,8.1
2023-05-04T03:50:48.000Z,8.1
2023-05-04T03:55:48.001Z,8.1
2023-05-04T04:00:48.011Z,6.2
2023-05-04T04:10:48.015Z,6.9
2023-05-04T04:20:48.031Z,7.1
2023-05-04T04:30:48.027Z,7.4
2023-05-04T04:35:48.011Z,7.7
2023-05-04T04:45:48.008Z,7.7
2023-05-04T04:55:48.013Z,7.8
2023-05-04T05:00:48.032Z,7.8
2023-05-04T05:10:48.006Z,7.8
2023-05-04T05:15:48.028Z,7.9
2023-05-04T05:25:48.020Z,7.9
2023-05-04T05:35:48.032Z,7.9
2023-05-04T05:45:48.017Z,7.9
2023-05-04T05:55:48.006Z,7.9
2023-05-04T06:00:48.026Z,7.9
2023-05-04T06:05:48.023Z,7.9
2023-05-04T06:15:48.083Z,7.8
2023-05-04T06:20:48.023Z,7.8
2023-05-04T06:40:48.015Z,7.8
2023-05-04T06:45:48.105Z,7.8
2023-05-04T06:55:48.013Z,7.8
2023-05-04T07:00:48.030Z,7.8
2023-05-04T07:05:48.040Z,7.9
2023-05-04T07:15:48.022Z,7.9
2023-05-04T07:25:48.032Z,7.9
2023-05-04T07:35:48.032Z,7.9
2023-05-04T07:45:48.072Z,7.8
2023-05-04T07:50:48.021Z,7.9
2023-05-04T08:00:48.026Z,7.9
2023-05-04T08:10:48.014Z,8
2023-05-04T08:25:48.013Z,8
2023-05-04T08:30:48.050Z,8
2023-05-04T08:35:48.023Z,8
2023-05-04T08:45:48.075Z,8
2023-05-04T08:55:48.034Z,8.1
2023-05-04T09:05:48.024Z,8.1
2023-05-04T09:10:48.041Z,8.1
2023-05-04T09:25:48.036Z,8.1
2023-05-04T09:40:48.041Z,8.1
2023-05-04T09:50:48.059Z,8.1
2023-05-04T10:00:48.051Z,8
2023-05-04T10:05:48.085Z,8.1
2023-05-04T10:15:48.074Z,8
2023-05-04T10:25:48.044Z,8
2023-05-04T10:35:48.048Z,8
2023-05-04T10:45:48.071Z,8.1
2023-05-04T10:55:48.063Z,8
2023-05-04T11:05:48.074Z,8.1
2023-05-04T11:20:48.086Z,8
2023-05-04T11:35:48.100Z,8.1
2023-05-04T11:45:48.076Z,8
2023-05-04T11:50:48.097Z,8
2023-05-04T11:55:48.086Z,8.1
2023-05-04T12:00:48.092Z,8.1
2023-05-04T12:10:48.108Z,8
2023-05-04T12:20:48.095Z,8.2
2023-05-04T12:35:48.084Z,8.1
2023-05-04T12:50:48.116Z,8
2023-05-04T13:05:48.107Z,8.1
2023-05-04T13:25:48.103Z,8
2023-05-04T13:30:48.124Z,8
2023-05-04T13:40:48.133Z,8.1
2023-05-04T13:50:48.117Z,8
2023-05-04T13:55:48.101Z,8.2
2023-05-04T14:10:48.117Z,8.1
2023-05-04T14:30:48.111Z,8.1
2023-05-04T14:35:48.425Z,8.2
2023-05-04T14:45:48.144Z,8.3
2023-05-04T14:55:48.137Z,8.3
2023-05-04T15:05:48.138Z,8.2
2023-05-04T15:15:48.164Z,8.3
2023-05-04T15:25:48.144Z,8.2
2023-05-04T15:30:48.139Z,8.3
2023-05-04T15:40:48.129Z,8.3
2023-05-04T15:50:48.143Z,8.3
2023-05-04T16:00:48.147Z,8.3
2023-05-04T16:05:48.155Z,8.3
2023-05-04T16:25:48.143Z,8.4
2023-05-04T16:30:48.214Z,8.4
2023-05-04T16:40:48.166Z,8.4
2023-05-04T16:45:48.236Z,8.3
2023-05-04T16:55:48.202Z,8.3
2023-05-04T17:05:48.171Z,8.4
2023-05-04T17:15:48.213Z,8.4
2023-05-04T17:25:48.154Z,8.5
2023-05-04T17:30:48.206Z,8.5
2023-05-04T17:35:48.227Z,8.5
2023-05-04T17:45:48.260Z,8.4
2023-05-04T17:55:48.186Z,8.5
2023-05-04T18:00:49.543Z,8.6
2023-05-04T18:10:48.221Z,8.6
2023-05-04T18:20:48.196Z,8.6
2023-05-04T18:25:48.218Z,8.6
2023-05-04T18:30:48.221Z,8.6
2023-05-04T18:40:48.213Z,8.6
2023-05-04T18:45:48.275Z,8.6
2023-05-04T18:50:49.437Z,8.6
2023-05-04T19:05:48.228Z,8.7
2023-05-04T19:40:48.217Z,8.6
2023-05-04T19:45:48.229Z,8.7
2023-05-04T19:55:48.236Z,8.7
2023-05-04T20:05:48.232Z,8.6
2023-05-04T20:20:48.230Z,8.8
2023-05-04T20:30:48.211Z,8.8
2023-05-04T20:35:48.218Z,8.8
2023-05-04T20:40:48.999Z,8.8
2023-05-04T21:00:48.233Z,8.7
2023-05-04T21:10:48.232Z,8.7
2023-05-04T21:15:48.275Z,8.7
2023-05-04T21:25:48.263Z,8.7
2023-05-04T21:35:48.258Z,8.7
2023-05-04T21:50:48.256Z,8.7
2023-05-04T21:55:48.262Z,8.7
2023-05-04T22:00:48.293Z,8.7
2023-05-04T22:30:48.385Z,8.7
2023-05-04T22:40:48.280Z,8.7
2023-05-04T22:50:48.303Z,8.7
2023-05-04T23:00:48.289Z,8.7
2023-05-04T23:10:48.306Z,8.7
2023-05-04T23:15:48.307Z,8.7
2023-05-04T23:25:48.275Z,8.7
2023-05-04T23:40:48.306Z,8.7
2023-05-04T23:50:48.278Z,8.8
2023-05-04T23:55:48.289Z,8.8
